Aérodrome :
LOGIN :

S'inscrire | Disclaimer

   EN    FR    IT 

 










Légende :    VFR   VFR Marginal   IFR   IFR Intensif   IFR Très Intensif
Visi : 
Plafond : 
>= 8 km
>= 3000ft
5 à 8 km
1000 à 3000 ft
1500m à 5 km
500 à 1000 ft
800 à 1500m
200 à 500 ft
< 800m
< 200 ft
Symboles :   Orages  Brouillard  Fortes neiges  Fortes précipitations  Vent > 20 kt
SIGMETs :   Divers  Orages  Givrage  Turbulence  Onde Orograph.  Cendres Volcan.






- Altitude de l'aérodrome : 157 ft
- Code IATA : LIL


LFQQ - Lille Lesquin

DERNIER METAR :
  • 231300Z AUTO VRB02KT 9999 OVC011 04/02 Q0993 TEMPO 1200 SNRA BKN004 BKN020TCU

METARs EXPIRÉS :
  • 231230Z AUTO VRB03KT 9999 OVC010 04/02 Q0993 TEMPO 1200 SNRA BKN004 BKN020TCU
  • 231200Z AUTO 16005KT 9999 OVC008 04/03 Q0993 TEMPO 3000 RASN BKN004 BKN020TCU
  • 231130Z AUTO 16006KT 9999 OVC007 03/02 Q0994 TEMPO 3000 RASN BKN004 BKN020TCU
  • 231100Z AUTO 15009KT 9999 OVC006 03/02 Q0994 TEMPO 3000 RA BKN006 BKN020TCU
  • 231030Z AUTO 15010KT 9999 OVC005 03/02 Q0994 TEMPO 3000 RA BKN006 BKN020TCU

TAF TAF LFQQ
Valide du 23 à 12h jusqu'au 24 à 18h UTC


231100Z 2312/2418 15008KT 9999 BKN006
TEMPO 2312/2317 3000 RASN BKN004 BKN020TCU
PROB40 2314/2316 1200 SNRA OVC002
BECMG 2315/2317 32010KT
BECMG 2317/2320 BKN013
BECMG 2400/2403 24006KT CAVOK
BECMG 2412/2414 14012KT BKN008
TEMPO 2414/2418 1500 SNRA OVC003
ATIS : +33 3 20 16 19 54



MET'MAP, la Météo Aéronautique d'un coup d'oeil ! - Copyright ORBIFLY Décembre 2007 - Disclaimer

ORBIFLY MET'MAP TEAM :

Programmation & Développement : Alexandra Zaïnal
Sur une idée originale de : Baudouin d'Aumeries
Assistance à la programmation : Marc-Olivier Méhu
Soutien technique & logistique : Manuel Goepfert

Contact : metmap@orbifly.com




SOURCES & CREDITS :

   NOAA